Terminal Aerodrome Forecast
Issued by NWS

Home | Current Version | Previous Version | Text Only | Print | Product List | Glossary On
Versions: 1 2 3 4 5 6 7 8 9 10 11 12 13 14
681
FTUS44 KTSA 241120
TAFBVO
TAF
KBVO 241120Z 2412/2512 17005KT P6SM BKN025
     FM241800 18010KT P6SM VCTS BKN035CB
     FM250000 17007KT P6SM BKN050
     FM250600 17007KT P6SM VCTS BKN035CB=

USA.gov is the U.S. government's official web portal to all federal, state and local government web resources and services.